sensor_id;sensor_type;location;lat;lon;timestamp;P1;durP1;ratioP1;P2;durP2;ratioP2
7883;SDS011;3987;51.458;7.238;2022-08-04T00:00:11;2.40;;;2.30;;
7883;SDS011;3987;51.458;7.238;2022-08-04T00:05:10;5.07;;;2.73;;
7883;SDS011;3987;51.458;7.238;2022-08-04T00:07:47;5.93;;;2.00;;
7883;SDS011;3987;51.458;7.238;2022-08-04T00:10:31;3.13;;;2.17;;
7883;SDS011;3987;51.458;7.238;2022-08-04T00:12:59;5.10;;;2.00;;
7883;SDS011;3987;51.458;7.238;2022-08-04T00:15:24;3.77;;;2.17;;
7883;SDS011;3987;51.458;7.238;2022-08-04T00:17:54;3.50;;;2.03;;
7883;SDS011;3987;51.458;7.238;2022-08-04T00:20:23;2.43;;;1.97;;
7883;SDS011;3987;51.458;7.238;2022-08-04T00:22:54;4.00;;;2.37;;
7883;SDS011;3987;51.458;7.238;2022-08-04T00:25:19;4.37;;;2.43;;
7883;SDS011;3987;51.458;7.238;2022-08-04T00:27:45;4.37;;;1.90;;
7883;SDS011;3987;51.458;7.238;2022-08-04T00:30:11;2.20;;;1.97;;
7883;SDS011;3987;51.458;7.238;2022-08-04T00:32:38;2.40;;;2.30;;
7883;SDS011;3987;51.458;7.238;2022-08-04T00:35:04;2.67;;;2.47;;
7883;SDS011;3987;51.458;7.238;2022-08-04T00:37:30;4.77;;;2.40;;
7883;SDS011;3987;51.458;7.238;2022-08-04T00:39:57;3.40;;;2.10;;
7883;SDS011;3987;51.458;7.238;2022-08-04T00:42:43;2.23;;;2.10;;
7883;SDS011;3987;51.458;7.238;2022-08-04T00:45:48;5.03;;;2.10;;
7883;SDS011;3987;51.458;7.238;2022-08-04T00:50:55;5.57;;;2.30;;
7883;SDS011;3987;51.458;7.238;2022-08-04T00:53:43;2.00;;;1.90;;
7883;SDS011;3987;51.458;7.238;2022-08-04T01:10:29;2.47;;;2.37;;
7883;SDS011;3987;51.458;7.238;2022-08-04T01:15:32;2.60;;;2.37;;
7883;SDS011;3987;51.458;7.238;2022-08-04T01:18:06;3.77;;;2.90;;
7883;SDS011;3987;51.458;7.238;2022-08-04T01:20:33;2.47;;;2.23;;
7883;SDS011;3987;51.458;7.238;2022-08-04T01:31:32;2.73;;;2.53;;
7883;SDS011;3987;51.458;7.238;2022-08-04T01:34:19;3.53;;;2.10;;
7883;SDS011;3987;51.458;7.238;2022-08-04T01:36:57;2.50;;;2.30;;
7883;SDS011;3987;51.458;7.238;2022-08-04T01:39:26;4.43;;;2.30;;
7883;SDS011;3987;51.458;7.238;2022-08-04T01:42:07;3.03;;;2.23;;
7883;SDS011;3987;51.458;7.238;2022-08-04T01:44:35;2.87;;;2.10;;
7883;SDS011;3987;51.458;7.238;2022-08-04T01:47:02;5.27;;;2.30;;
7883;SDS011;3987;51.458;7.238;2022-08-04T01:49:29;3.90;;;2.40;;
7883;SDS011;3987;51.458;7.238;2022-08-04T01:51:56;4.30;;;2.40;;
7883;SDS011;3987;51.458;7.238;2022-08-04T01:54:22;2.47;;;2.30;;
7883;SDS011;3987;51.458;7.238;2022-08-04T01:56:48;2.43;;;2.20;;
7883;SDS011;3987;51.458;7.238;2022-08-04T01:59:16;2.63;;;2.43;;
7883;SDS011;3987;51.458;7.238;2022-08-04T02:01:43;4.17;;;2.63;;
7883;SDS011;3987;51.458;7.238;2022-08-04T02:04:12;2.90;;;2.10;;
7883;SDS011;3987;51.458;7.238;2022-08-04T02:09:46;2.70;;;2.33;;
7883;SDS011;3987;51.458;7.238;2022-08-04T02:12:24;5.10;;;2.70;;
7883;SDS011;3987;51.458;7.238;2022-08-04T02:18:05;2.20;;;2.10;;
7883;SDS011;3987;51.458;7.238;2022-08-04T02:20:58;5.53;;;2.30;;
7883;SDS011;3987;51.458;7.238;2022-08-04T02:23:27;3.50;;;2.37;;
7883;SDS011;3987;51.458;7.238;2022-08-04T02:26:00;4.30;;;2.07;;
7883;SDS011;3987;51.458;7.238;2022-08-04T02:28:29;7.63;;;2.40;;
7883;SDS011;3987;51.458;7.238;2022-08-04T02:33:38;2.87;;;2.60;;
7883;SDS011;3987;51.458;7.238;2022-08-04T02:36:21;6.50;;;2.70;;
7883;SDS011;3987;51.458;7.238;2022-08-04T02:38:57;4.90;;;2.70;;
7883;SDS011;3987;51.458;7.238;2022-08-04T02:41:24;3.87;;;2.20;;
7883;SDS011;3987;51.458;7.238;2022-08-04T02:43:51;6.10;;;2.13;;
7883;SDS011;3987;51.458;7.238;2022-08-04T02:46:20;5.87;;;2.40;;
7883;SDS011;3987;51.458;7.238;2022-08-04T02:48:46;4.67;;;2.37;;
7883;SDS011;3987;51.458;7.238;2022-08-04T02:51:14;3.20;;;2.30;;
7883;SDS011;3987;51.458;7.238;2022-08-04T02:53:44;5.20;;;3.20;;
7883;SDS011;3987;51.458;7.238;2022-08-04T02:56:10;4.63;;;2.53;;
7883;SDS011;3987;51.458;7.238;2022-08-04T02:58:36;2.90;;;2.40;;
7883;SDS011;3987;51.458;7.238;2022-08-04T03:01:02;4.20;;;2.67;;
7883;SDS011;3987;51.458;7.238;2022-08-04T03:17:18;2.97;;;2.37;;
7883;SDS011;3987;51.458;7.238;2022-08-04T03:22:51;5.00;;;2.80;;
7883;SDS011;3987;51.458;7.238;2022-08-04T03:25:40;3.67;;;2.80;;
7883;SDS011;3987;51.458;7.238;2022-08-04T03:33:49;3.03;;;2.57;;
7883;SDS011;3987;51.458;7.238;2022-08-04T03:39:52;3.40;;;2.83;;
7883;SDS011;3987;51.458;7.238;2022-08-04T03:48:28;2.93;;;2.73;;
7883;SDS011;3987;51.458;7.238;2022-08-04T03:51:11;4.10;;;2.80;;
7883;SDS011;3987;51.458;7.238;2022-08-04T03:57:06;3.67;;;2.67;;
7883;SDS011;3987;51.458;7.238;2022-08-04T04:02:09;2.43;;;2.10;;
7883;SDS011;3987;51.458;7.238;2022-08-04T04:07:37;2.57;;;2.40;;
7883;SDS011;3987;51.458;7.238;2022-08-04T04:16:36;3.30;;;2.83;;
7883;SDS011;3987;51.458;7.238;2022-08-04T04:19:25;6.63;;;3.33;;
7883;SDS011;3987;51.458;7.238;2022-08-04T04:22:21;4.63;;;3.47;;
7883;SDS011;3987;51.458;7.238;2022-08-04T04:37:06;5.43;;;3.40;;
7883;SDS011;3987;51.458;7.238;2022-08-04T04:45:33;2.97;;;2.80;;
7883;SDS011;3987;51.458;7.238;2022-08-04T04:53:49;3.47;;;3.17;;
7883;SDS011;3987;51.458;7.238;2022-08-04T04:56:26;3.63;;;3.20;;
7883;SDS011;3987;51.458;7.238;2022-08-04T04:58:54;3.63;;;3.30;;
7883;SDS011;3987;51.458;7.238;2022-08-04T05:01:26;2.93;;;2.80;;
7883;SDS011;3987;51.458;7.238;2022-08-04T05:09:54;3.40;;;3.13;;
7883;SDS011;3987;51.458;7.238;2022-08-04T05:15:36;3.60;;;3.33;;
7883;SDS011;3987;51.458;7.238;2022-08-04T05:18:05;3.83;;;3.37;;
7883;SDS011;3987;51.458;7.238;2022-08-04T05:20:39;4.83;;;3.53;;
7883;SDS011;3987;51.458;7.238;2022-08-04T05:25:33;3.00;;;2.77;;
7883;SDS011;3987;51.458;7.238;2022-08-04T05:28:14;5.87;;;3.40;;
7883;SDS011;3987;51.458;7.238;2022-08-04T05:30:49;3.33;;;2.77;;
7883;SDS011;3987;51.458;7.238;2022-08-04T05:33:28;7.37;;;3.43;;
7883;SDS011;3987;51.458;7.238;2022-08-04T05:35:58;4.40;;;3.00;;
7883;SDS011;3987;51.458;7.238;2022-08-04T05:38:33;3.63;;;2.67;;
7883;SDS011;3987;51.458;7.238;2022-08-04T05:40:59;3.67;;;3.27;;
7883;SDS011;3987;51.458;7.238;2022-08-04T05:43:26;4.03;;;3.17;;
7883;SDS011;3987;51.458;7.238;2022-08-04T05:45:51;4.13;;;3.23;;
7883;SDS011;3987;51.458;7.238;2022-08-04T05:48:17;4.00;;;2.70;;
7883;SDS011;3987;51.458;7.238;2022-08-04T05:50:44;3.23;;;2.90;;
7883;SDS011;3987;51.458;7.238;2022-08-04T05:53:10;4.77;;;3.00;;
7883;SDS011;3987;51.458;7.238;2022-08-04T05:55:37;2.70;;;2.60;;
7883;SDS011;3987;51.458;7.238;2022-08-04T05:58:02;3.07;;;2.83;;
7883;SDS011;3987;51.458;7.238;2022-08-04T06:00:28;3.57;;;2.70;;
7883;SDS011;3987;51.458;7.238;2022-08-04T06:02:54;3.83;;;2.93;;
7883;SDS011;3987;51.458;7.238;2022-08-04T06:05:20;3.10;;;2.90;;
7883;SDS011;3987;51.458;7.238;2022-08-04T06:07:46;4.67;;;3.00;;
7883;SDS011;3987;51.458;7.238;2022-08-04T06:10:12;3.00;;;2.80;;
7883;SDS011;3987;51.458;7.238;2022-08-04T06:15:03;2.93;;;2.73;;
7883;SDS011;3987;51.458;7.238;2022-08-04T06:17:31;2.90;;;2.67;;
7883;SDS011;3987;51.458;7.238;2022-08-04T06:19:58;4.27;;;3.00;;
7883;SDS011;3987;51.458;7.238;2022-08-04T06:22:25;2.60;;;2.53;;
7883;SDS011;3987;51.458;7.238;2022-08-04T06:24:52;3.10;;;2.83;;
7883;SDS011;3987;51.458;7.238;2022-08-04T06:27:19;5.10;;;2.73;;
7883;SDS011;3987;51.458;7.238;2022-08-04T06:29:45;4.83;;;2.63;;
7883;SDS011;3987;51.458;7.238;2022-08-04T06:32:12;3.53;;;2.60;;
7883;SDS011;3987;51.458;7.238;2022-08-04T06:34:58;5.90;;;2.77;;
7883;SDS011;3987;51.458;7.238;2022-08-04T06:37:28;4.93;;;2.67;;
7883;SDS011;3987;51.458;7.238;2022-08-04T06:39:53;5.40;;;2.63;;
7883;SDS011;3987;51.458;7.238;2022-08-04T06:42:23;5.13;;;2.47;;
7883;SDS011;3987;51.458;7.238;2022-08-04T06:44:51;4.20;;;2.27;;
7883;SDS011;3987;51.458;7.238;2022-08-04T06:47:19;2.40;;;1.87;;
7883;SDS011;3987;51.458;7.238;2022-08-04T06:49:50;1.90;;;1.80;;
7883;SDS011;3987;51.458;7.238;2022-08-04T06:52:16;1.60;;;1.50;;
7883;SDS011;3987;51.458;7.238;2022-08-04T06:54:43;3.03;;;2.07;;
7883;SDS011;3987;51.458;7.238;2022-08-04T06:57:10;1.80;;;1.60;;
7883;SDS011;3987;51.458;7.238;2022-08-04T06:59:39;1.97;;;1.60;;
7883;SDS011;3987;51.458;7.238;2022-08-04T07:02:06;2.43;;;1.50;;
7883;SDS011;3987;51.458;7.238;2022-08-04T07:04:37;1.65;;;1.65;;
7883;SDS011;3987;51.458;7.238;2022-08-04T07:07:03;2.00;;;1.90;;
7883;SDS011;3987;51.458;7.238;2022-08-04T07:09:29;1.58;;;1.48;;
7883;SDS011;3987;51.458;7.238;2022-08-04T07:11:55;2.03;;;1.67;;
7883;SDS011;3987;51.458;7.238;2022-08-04T07:14:20;1.50;;;1.40;;
7883;SDS011;3987;51.458;7.238;2022-08-04T07:16:46;1.83;;;1.55;;
7883;SDS011;3987;51.458;7.238;2022-08-04T07:19:12;2.05;;;1.60;;
7883;SDS011;3987;51.458;7.238;2022-08-04T07:21:38;1.45;;;1.45;;
7883;SDS011;3987;51.458;7.238;2022-08-04T07:24:03;1.60;;;1.50;;
7883;SDS011;3987;51.458;7.238;2022-08-04T07:26:29;1.50;;;1.40;;
7883;SDS011;3987;51.458;7.238;2022-08-04T07:28:54;1.40;;;1.40;;
7883;SDS011;3987;51.458;7.238;2022-08-04T07:31:20;1.50;;;1.50;;
7883;SDS011;3987;51.458;7.238;2022-08-04T07:33:47;2.55;;;1.50;;
7883;SDS011;3987;51.458;7.238;2022-08-04T07:36:13;4.50;;;1.52;;
7883;SDS011;3987;51.458;7.238;2022-08-04T07:38:40;1.77;;;1.60;;
7883;SDS011;3987;51.458;7.238;2022-08-04T07:41:06;1.85;;;1.75;;
7883;SDS011;3987;51.458;7.238;2022-08-04T07:43:31;1.77;;;1.70;;
7883;SDS011;3987;51.458;7.238;2022-08-04T07:45:57;1.42;;;1.33;;
7883;SDS011;3987;51.458;7.238;2022-08-04T07:48:22;1.77;;;1.73;;
7883;SDS011;3987;51.458;7.238;2022-08-04T07:50:49;1.42;;;1.30;;
7883;SDS011;3987;51.458;7.238;2022-08-04T07:53:14;2.25;;;1.15;;
7883;SDS011;3987;51.458;7.238;2022-08-04T07:55:41;1.52;;;1.45;;
7883;SDS011;3987;51.458;7.238;2022-08-04T07:58:08;1.80;;;1.70;;
7883;SDS011;3987;51.458;7.238;2022-08-04T08:00:33;2.08;;;1.50;;
7883;SDS011;3987;51.458;7.238;2022-08-04T08:02:59;2.13;;;1.50;;
7883;SDS011;3987;51.458;7.238;2022-08-04T08:05:25;2.75;;;1.48;;
7883;SDS011;3987;51.458;7.238;2022-08-04T08:07:50;3.60;;;1.60;;
7883;SDS011;3987;51.458;7.238;2022-08-04T08:10:16;2.53;;;1.38;;
7883;SDS011;3987;51.458;7.238;2022-08-04T08:12:42;2.58;;;1.50;;
7883;SDS011;3987;51.458;7.238;2022-08-04T08:15:09;2.80;;;1.92;;
7883;SDS011;3987;51.458;7.238;2022-08-04T08:17:36;1.50;;;1.40;;
7883;SDS011;3987;51.458;7.238;2022-08-04T08:20:02;3.42;;;1.20;;
7883;SDS011;3987;51.458;7.238;2022-08-04T08:22:28;1.60;;;1.20;;
7883;SDS011;3987;51.458;7.238;2022-08-04T08:24:55;1.55;;;1.35;;
7883;SDS011;3987;51.458;7.238;2022-08-04T08:27:20;2.00;;;1.20;;
7883;SDS011;3987;51.458;7.238;2022-08-04T08:29:45;3.15;;;1.13;;
7883;SDS011;3987;51.458;7.238;2022-08-04T08:32:11;1.65;;;1.52;;
7883;SDS011;3987;51.458;7.238;2022-08-04T08:34:38;1.30;;;1.20;;
7883;SDS011;3987;51.458;7.238;2022-08-04T08:37:06;2.22;;;1.25;;
7883;SDS011;3987;51.458;7.238;2022-08-04T08:39:45;1.15;;;1.15;;
7883;SDS011;3987;51.458;7.238;2022-08-04T08:42:22;1.30;;;1.20;;
7883;SDS011;3987;51.458;7.238;2022-08-04T08:45:13;2.08;;;1.17;;
7883;SDS011;3987;51.458;7.238;2022-08-04T08:48:06;1.20;;;1.20;;
7883;SDS011;3987;51.458;7.238;2022-08-04T08:51:23;1.95;;;1.40;;
7883;SDS011;3987;51.458;7.238;2022-08-04T08:56:11;1.40;;;1.25;;
7883;SDS011;3987;51.458;7.238;2022-08-04T08:58:52;3.03;;;1.05;;
7883;SDS011;3987;51.458;7.238;2022-08-04T09:01:51;1.70;;;1.60;;
7883;SDS011;3987;51.458;7.238;2022-08-04T09:04:31;1.30;;;1.20;;
7883;SDS011;3987;51.458;7.238;2022-08-04T09:12:29;1.30;;;1.30;;
7883;SDS011;3987;51.458;7.238;2022-08-04T09:15:14;1.65;;;1.05;;
7883;SDS011;3987;51.458;7.238;2022-08-04T09:20:14;0.82;;;0.70;;
7883;SDS011;3987;51.458;7.238;2022-08-04T09:25:33;1.58;;;0.90;;
7883;SDS011;3987;51.458;7.238;2022-08-04T09:28:04;1.00;;;1.00;;
7883;SDS011;3987;51.458;7.238;2022-08-04T09:33:23;0.95;;;0.95;;
7883;SDS011;3987;51.458;7.238;2022-08-04T09:39:01;1.13;;;1.10;;
7883;SDS011;3987;51.458;7.238;2022-08-04T09:47:12;0.70;;;0.70;;
7883;SDS011;3987;51.458;7.238;2022-08-04T09:54:48;6.97;;;1.15;;
7883;SDS011;3987;51.458;7.238;2022-08-04T10:00:05;2.03;;;1.00;;
7883;SDS011;3987;51.458;7.238;2022-08-04T10:02:43;0.80;;;0.80;;
7883;SDS011;3987;51.458;7.238;2022-08-04T10:05:20;1.23;;;0.77;;
7883;SDS011;3987;51.458;7.238;2022-08-04T10:10:32;0.88;;;0.82;;
7883;SDS011;3987;51.458;7.238;2022-08-04T10:13:10;1.00;;;1.00;;
7883;SDS011;3987;51.458;7.238;2022-08-04T10:15:48;3.88;;;0.90;;
7883;SDS011;3987;51.458;7.238;2022-08-04T10:21:35;0.90;;;0.90;;
7883;SDS011;3987;51.458;7.238;2022-08-04T10:24:20;2.15;;;1.02;;
7883;SDS011;3987;51.458;7.238;2022-08-04T10:29:42;7.72;;;1.08;;
7883;SDS011;3987;51.458;7.238;2022-08-04T10:37:43;1.75;;;0.95;;
7883;SDS011;3987;51.458;7.238;2022-08-04T10:48:34;3.13;;;1.00;;
7883;SDS011;3987;51.458;7.238;2022-08-04T10:53:51;4.10;;;1.00;;
7883;SDS011;3987;51.458;7.238;2022-08-04T10:56:22;1.15;;;0.85;;
7883;SDS011;3987;51.458;7.238;2022-08-04T10:58:55;2.72;;;1.38;;
7883;SDS011;3987;51.458;7.238;2022-08-04T11:01:31;1.00;;;1.00;;
7883;SDS011;3987;51.458;7.238;2022-08-04T11:04:00;2.13;;;1.20;;
7883;SDS011;3987;51.458;7.238;2022-08-04T11:06:29;1.00;;;1.00;;
7883;SDS011;3987;51.458;7.238;2022-08-04T11:08:56;4.63;;;1.50;;
7883;SDS011;3987;51.458;7.238;2022-08-04T11:11:35;1.27;;;1.08;;
7883;SDS011;3987;51.458;7.238;2022-08-04T11:14:07;3.00;;;1.60;;
7883;SDS011;3987;51.458;7.238;2022-08-04T11:16:35;2.40;;;1.75;;
7883;SDS011;3987;51.458;7.238;2022-08-04T11:19:07;4.82;;;1.70;;
7883;SDS011;3987;51.458;7.238;2022-08-04T11:21:42;3.67;;;1.75;;
7883;SDS011;3987;51.458;7.238;2022-08-04T11:27:00;2.13;;;2.00;;
7883;SDS011;3987;51.458;7.238;2022-08-04T11:29:48;3.53;;;2.08;;
7883;SDS011;3987;51.458;7.238;2022-08-04T11:32:22;3.55;;;1.88;;
7883;SDS011;3987;51.458;7.238;2022-08-04T11:34:56;3.03;;;1.40;;
7883;SDS011;3987;51.458;7.238;2022-08-04T11:37:24;4.70;;;1.73;;
7883;SDS011;3987;51.458;7.238;2022-08-04T11:39:55;4.82;;;1.90;;
7883;SDS011;3987;51.458;7.238;2022-08-04T11:42:27;6.22;;;2.17;;
7883;SDS011;3987;51.458;7.238;2022-08-04T11:44:59;2.25;;;2.15;;
7883;SDS011;3987;51.458;7.238;2022-08-04T11:52:30;3.97;;;2.13;;
7883;SDS011;3987;51.458;7.238;2022-08-04T11:54:57;3.42;;;2.35;;
7883;SDS011;3987;51.458;7.238;2022-08-04T11:57:24;6.57;;;2.75;;
7883;SDS011;3987;51.458;7.238;2022-08-04T11:59:50;2.92;;;2.60;;
7883;SDS011;3987;51.458;7.238;2022-08-04T12:05:17;4.32;;;2.15;;
7883;SDS011;3987;51.458;7.238;2022-08-04T12:07:50;4.68;;;2.15;;
7883;SDS011;3987;51.458;7.238;2022-08-04T12:10:26;4.72;;;1.90;;
7883;SDS011;3987;51.458;7.238;2022-08-04T12:13:09;3.63;;;2.10;;
7883;SDS011;3987;51.458;7.238;2022-08-04T12:15:46;6.82;;;1.80;;
7883;SDS011;3987;51.458;7.238;2022-08-04T12:18:22;3.30;;;1.30;;
7883;SDS011;3987;51.458;7.238;2022-08-04T12:20:59;1.58;;;1.25;;
7883;SDS011;3987;51.458;7.238;2022-08-04T12:23:29;3.67;;;1.95;;
7883;SDS011;3987;51.458;7.238;2022-08-04T12:25:59;2.28;;;1.40;;
7883;SDS011;3987;51.458;7.238;2022-08-04T12:31:13;2.67;;;1.20;;
7883;SDS011;3987;51.458;7.238;2022-08-04T12:33:57;2.10;;;1.65;;
7883;SDS011;3987;51.458;7.238;2022-08-04T12:36:31;6.28;;;1.63;;
7883;SDS011;3987;51.458;7.238;2022-08-04T12:39:16;4.93;;;2.00;;
7883;SDS011;3987;51.458;7.238;2022-08-04T12:41:57;3.53;;;1.55;;
7883;SDS011;3987;51.458;7.238;2022-08-04T12:44:35;4.10;;;1.52;;
7883;SDS011;3987;51.458;7.238;2022-08-04T12:47:03;2.42;;;1.73;;
7883;SDS011;3987;51.458;7.238;2022-08-04T12:49:30;4.60;;;2.25;;
7883;SDS011;3987;51.458;7.238;2022-08-04T12:51:56;5.47;;;1.80;;
7883;SDS011;3987;51.458;7.238;2022-08-04T12:54:24;5.68;;;1.70;;
7883;SDS011;3987;51.458;7.238;2022-08-04T12:56:50;4.47;;;1.80;;
7883;SDS011;3987;51.458;7.238;2022-08-04T12:59:16;4.82;;;2.08;;
7883;SDS011;3987;51.458;7.238;2022-08-04T13:01:48;4.13;;;1.90;;
7883;SDS011;3987;51.458;7.238;2022-08-04T13:04:19;4.00;;;1.60;;
7883;SDS011;3987;51.458;7.238;2022-08-04T13:06:52;2.08;;;1.63;;
7883;SDS011;3987;51.458;7.238;2022-08-04T13:09:30;5.15;;;1.60;;
7883;SDS011;3987;51.458;7.238;2022-08-04T13:12:02;4.57;;;1.67;;
7883;SDS011;3987;51.458;7.238;2022-08-04T13:14:34;4.25;;;2.03;;
7883;SDS011;3987;51.458;7.238;2022-08-04T13:17:01;7.32;;;1.80;;
7883;SDS011;3987;51.458;7.238;2022-08-04T13:19:28;3.47;;;1.88;;
7883;SDS011;3987;51.458;7.238;2022-08-04T13:21:54;5.47;;;2.00;;
7883;SDS011;3987;51.458;7.238;2022-08-04T13:24:21;3.50;;;1.67;;
7883;SDS011;3987;51.458;7.238;2022-08-04T13:26:55;5.00;;;2.05;;
7883;SDS011;3987;51.458;7.238;2022-08-04T13:29:37;2.17;;;1.67;;
7883;SDS011;3987;51.458;7.238;2022-08-04T13:32:04;2.58;;;2.00;;
7883;SDS011;3987;51.458;7.238;2022-08-04T13:34:31;6.25;;;1.85;;
7883;SDS011;3987;51.458;7.238;2022-08-04T13:36:57;2.80;;;2.05;;
7883;SDS011;3987;51.458;7.238;2022-08-04T13:39:23;5.00;;;1.90;;
7883;SDS011;3987;51.458;7.238;2022-08-04T13:41:51;5.32;;;2.15;;
7883;SDS011;3987;51.458;7.238;2022-08-04T13:44:22;5.70;;;2.50;;
7883;SDS011;3987;51.458;7.238;2022-08-04T13:46:55;3.15;;;1.75;;
7883;SDS011;3987;51.458;7.238;2022-08-04T13:49:32;5.88;;;1.55;;
7883;SDS011;3987;51.458;7.238;2022-08-04T13:51:58;3.63;;;2.05;;
7883;SDS011;3987;51.458;7.238;2022-08-04T13:54:46;3.38;;;1.85;;
7883;SDS011;3987;51.458;7.238;2022-08-04T13:57:13;5.00;;;1.63;;
7883;SDS011;3987;51.458;7.238;2022-08-04T13:59:43;3.05;;;2.00;;
7883;SDS011;3987;51.458;7.238;2022-08-04T14:02:14;4.10;;;1.67;;
7883;SDS011;3987;51.458;7.238;2022-08-04T14:05:12;3.08;;;2.08;;
7883;SDS011;3987;51.458;7.238;2022-08-04T14:07:40;3.00;;;1.98;;
7883;SDS011;3987;51.458;7.238;2022-08-04T14:10:10;6.50;;;2.00;;
7883;SDS011;3987;51.458;7.238;2022-08-04T14:12:42;4.45;;;1.90;;
7883;SDS011;3987;51.458;7.238;2022-08-04T14:15:27;5.45;;;2.05;;
7883;SDS011;3987;51.458;7.238;2022-08-04T14:20:58;3.35;;;1.98;;
7883;SDS011;3987;51.458;7.238;2022-08-04T14:23:28;3.42;;;1.45;;
7883;SDS011;3987;51.458;7.238;2022-08-04T14:26:13;1.35;;;1.30;;
7883;SDS011;3987;51.458;7.238;2022-08-04T14:28:39;2.30;;;1.60;;
7883;SDS011;3987;51.458;7.238;2022-08-04T14:31:08;2.05;;;1.40;;
7883;SDS011;3987;51.458;7.238;2022-08-04T14:33:36;3.45;;;1.50;;
7883;SDS011;3987;51.458;7.238;2022-08-04T14:36:02;1.63;;;1.52;;
7883;SDS011;3987;51.458;7.238;2022-08-04T14:38:45;7.03;;;1.52;;
7883;SDS011;3987;51.458;7.238;2022-08-04T14:41:13;3.35;;;1.30;;
7883;SDS011;3987;51.458;7.238;2022-08-04T14:43:40;7.15;;;1.85;;
7883;SDS011;3987;51.458;7.238;2022-08-04T14:46:17;3.63;;;1.80;;
7883;SDS011;3987;51.458;7.238;2022-08-04T14:49:03;9.05;;;2.08;;
7883;SDS011;3987;51.458;7.238;2022-08-04T14:51:52;2.17;;;1.80;;
7883;SDS011;3987;51.458;7.238;2022-08-04T14:54:25;3.85;;;1.83;;
7883;SDS011;3987;51.458;7.238;2022-08-04T14:56:53;3.42;;;1.40;;
7883;SDS011;3987;51.458;7.238;2022-08-04T14:59:21;9.70;;;1.80;;
7883;SDS011;3987;51.458;7.238;2022-08-04T15:01:48;4.97;;;1.70;;
7883;SDS011;3987;51.458;7.238;2022-08-04T15:04:14;1.80;;;1.70;;
7883;SDS011;3987;51.458;7.238;2022-08-04T15:06:39;5.53;;;1.92;;
7883;SDS011;3987;51.458;7.238;2022-08-04T15:09:06;1.88;;;1.77;;
7883;SDS011;3987;51.458;7.238;2022-08-04T15:11:34;3.20;;;1.83;;
7883;SDS011;3987;51.458;7.238;2022-08-04T15:14:00;2.00;;;1.42;;
7883;SDS011;3987;51.458;7.238;2022-08-04T15:16:27;1.65;;;1.60;;
7883;SDS011;3987;51.458;7.238;2022-08-04T15:18:54;2.22;;;1.63;;
7883;SDS011;3987;51.458;7.238;2022-08-04T15:21:20;3.55;;;1.70;;
7883;SDS011;3987;51.458;7.238;2022-08-04T15:23:47;1.92;;;1.83;;
7883;SDS011;3987;51.458;7.238;2022-08-04T15:26:18;3.65;;;2.08;;
7883;SDS011;3987;51.458;7.238;2022-08-04T15:28:50;2.13;;;1.58;;
7883;SDS011;3987;51.458;7.238;2022-08-04T15:31:18;2.80;;;1.45;;
7883;SDS011;3987;51.458;7.238;2022-08-04T15:33:45;2.13;;;1.83;;
7883;SDS011;3987;51.458;7.238;2022-08-04T15:36:13;2.10;;;1.90;;
7883;SDS011;3987;51.458;7.238;2022-08-04T15:38:48;2.97;;;1.88;;
7883;SDS011;3987;51.458;7.238;2022-08-04T15:41:52;2.15;;;1.15;;
7883;SDS011;3987;51.458;7.238;2022-08-04T15:47:08;1.45;;;1.45;;
7883;SDS011;3987;51.458;7.238;2022-08-04T15:49:34;4.88;;;1.85;;
7883;SDS011;3987;51.458;7.238;2022-08-04T15:52:03;3.72;;;1.77;;
7883;SDS011;3987;51.458;7.238;2022-08-04T15:54:30;4.00;;;1.65;;
7883;SDS011;3987;51.458;7.238;2022-08-04T15:56:56;2.78;;;1.80;;
7883;SDS011;3987;51.458;7.238;2022-08-04T16:07:59;4.00;;;2.20;;
7883;SDS011;3987;51.458;7.238;2022-08-04T16:12:54;2.05;;;1.95;;
7883;SDS011;3987;51.458;7.238;2022-08-04T16:15:37;3.17;;;1.87;;
7883;SDS011;3987;51.458;7.238;2022-08-04T16:18:04;2.80;;;1.80;;
7883;SDS011;3987;51.458;7.238;2022-08-04T16:20:29;1.93;;;1.83;;
7883;SDS011;3987;51.458;7.238;2022-08-04T16:22:56;1.83;;;1.70;;
7883;SDS011;3987;51.458;7.238;2022-08-04T16:25:44;2.63;;;2.23;;
7883;SDS011;3987;51.458;7.238;2022-08-04T16:30:59;2.93;;;1.77;;
7883;SDS011;3987;51.458;7.238;2022-08-04T16:33:26;2.80;;;1.60;;
7883;SDS011;3987;51.458;7.238;2022-08-04T16:35:54;2.63;;;1.93;;
7883;SDS011;3987;51.458;7.238;2022-08-04T16:38:20;3.27;;;1.50;;
7883;SDS011;3987;51.458;7.238;2022-08-04T16:40:45;1.90;;;1.80;;
7883;SDS011;3987;51.458;7.238;2022-08-04T16:43:22;2.10;;;1.80;;
7883;SDS011;3987;51.458;7.238;2022-08-04T16:45:56;1.80;;;1.53;;
7883;SDS011;3987;51.458;7.238;2022-08-04T16:48:24;1.47;;;1.37;;
7883;SDS011;3987;51.458;7.238;2022-08-04T16:50:51;1.77;;;1.33;;
7883;SDS011;3987;51.458;7.238;2022-08-04T16:53:25;1.80;;;1.70;;
7883;SDS011;3987;51.458;7.238;2022-08-04T16:55:52;1.93;;;1.83;;
7883;SDS011;3987;51.458;7.238;2022-08-04T16:58:25;2.80;;;1.93;;
7883;SDS011;3987;51.458;7.238;2022-08-04T17:00:58;2.00;;;1.90;;
7883;SDS011;3987;51.458;7.238;2022-08-04T17:03:31;2.20;;;1.83;;
7883;SDS011;3987;51.458;7.238;2022-08-04T17:06:03;1.80;;;1.60;;
7883;SDS011;3987;51.458;7.238;2022-08-04T17:08:31;3.33;;;1.70;;
7883;SDS011;3987;51.458;7.238;2022-08-04T17:10:57;1.90;;;1.73;;
7883;SDS011;3987;51.458;7.238;2022-08-04T17:13:27;2.60;;;1.90;;
7883;SDS011;3987;51.458;7.238;2022-08-04T17:15:56;3.03;;;1.90;;
7883;SDS011;3987;51.458;7.238;2022-08-04T17:18:26;1.87;;;1.77;;
7883;SDS011;3987;51.458;7.238;2022-08-04T17:20:58;7.20;;;6.53;;
7883;SDS011;3987;51.458;7.238;2022-08-04T17:23:28;7.23;;;2.93;;
7883;SDS011;3987;51.458;7.238;2022-08-04T17:25:59;2.50;;;2.10;;
7883;SDS011;3987;51.458;7.238;2022-08-04T17:28:27;2.40;;;1.63;;
7883;SDS011;3987;51.458;7.238;2022-08-04T17:30:53;1.83;;;1.53;;
7883;SDS011;3987;51.458;7.238;2022-08-04T17:33:20;2.77;;;1.90;;
7883;SDS011;3987;51.458;7.238;2022-08-04T17:35:47;1.50;;;1.30;;
7883;SDS011;3987;51.458;7.238;2022-08-04T17:38:12;1.80;;;1.70;;
7883;SDS011;3987;51.458;7.238;2022-08-04T17:40:49;2.00;;;1.90;;
7883;SDS011;3987;51.458;7.238;2022-08-04T17:43:15;2.80;;;2.20;;
7883;SDS011;3987;51.458;7.238;2022-08-04T17:45:41;2.03;;;1.93;;
7883;SDS011;3987;51.458;7.238;2022-08-04T17:48:07;2.70;;;1.87;;
7883;SDS011;3987;51.458;7.238;2022-08-04T17:50:33;2.07;;;1.87;;
7883;SDS011;3987;51.458;7.238;2022-08-04T17:53:03;1.80;;;1.77;;
7883;SDS011;3987;51.458;7.238;2022-08-04T17:55:36;2.17;;;2.00;;
7883;SDS011;3987;51.458;7.238;2022-08-04T17:58:11;5.73;;;2.13;;
7883;SDS011;3987;51.458;7.238;2022-08-04T18:00:38;2.10;;;2.00;;
7883;SDS011;3987;51.458;7.238;2022-08-04T18:03:03;1.83;;;1.73;;
7883;SDS011;3987;51.458;7.238;2022-08-04T18:05:29;2.20;;;2.10;;
7883;SDS011;3987;51.458;7.238;2022-08-04T18:07:55;2.63;;;2.13;;
7883;SDS011;3987;51.458;7.238;2022-08-04T18:10:30;2.00;;;1.90;;
7883;SDS011;3987;51.458;7.238;2022-08-04T18:13:04;3.33;;;2.00;;
7883;SDS011;3987;51.458;7.238;2022-08-04T18:15:31;2.83;;;1.93;;
7883;SDS011;3987;51.458;7.238;2022-08-04T18:17:56;2.00;;;1.60;;
7883;SDS011;3987;51.458;7.238;2022-08-04T18:20:23;2.20;;;2.20;;
7883;SDS011;3987;51.458;7.238;2022-08-04T18:22:50;2.10;;;2.10;;
7883;SDS011;3987;51.458;7.238;2022-08-04T18:25:17;2.37;;;2.27;;
7883;SDS011;3987;51.458;7.238;2022-08-04T18:30:18;3.20;;;2.13;;
7883;SDS011;3987;51.458;7.238;2022-08-04T18:32:44;2.33;;;2.00;;
7883;SDS011;3987;51.458;7.238;2022-08-04T18:35:10;2.17;;;2.07;;
7883;SDS011;3987;51.458;7.238;2022-08-04T18:37:35;2.10;;;1.97;;
7883;SDS011;3987;51.458;7.238;2022-08-04T18:40:01;1.80;;;1.60;;
7883;SDS011;3987;51.458;7.238;2022-08-04T18:42:26;6.20;;;2.30;;
7883;SDS011;3987;51.458;7.238;2022-08-04T18:44:52;3.97;;;1.80;;
7883;SDS011;3987;51.458;7.238;2022-08-04T18:47:20;3.77;;;2.47;;
7883;SDS011;3987;51.458;7.238;2022-08-04T18:49:48;2.13;;;2.03;;
7883;SDS011;3987;51.458;7.238;2022-08-04T18:52:15;5.90;;;2.43;;
7883;SDS011;3987;51.458;7.238;2022-08-04T18:54:40;4.63;;;1.70;;
7883;SDS011;3987;51.458;7.238;2022-08-04T18:57:05;1.90;;;1.80;;
7883;SDS011;3987;51.458;7.238;2022-08-04T18:59:31;1.90;;;1.80;;
7883;SDS011;3987;51.458;7.238;2022-08-04T19:01:56;3.13;;;2.10;;
7883;SDS011;3987;51.458;7.238;2022-08-04T19:04:21;2.70;;;2.50;;
7883;SDS011;3987;51.458;7.238;2022-08-04T19:06:47;3.27;;;2.53;;
7883;SDS011;3987;51.458;7.238;2022-08-04T19:09:12;2.60;;;2.40;;
7883;SDS011;3987;51.458;7.238;2022-08-04T19:11:38;3.33;;;2.50;;
7883;SDS011;3987;51.458;7.238;2022-08-04T19:14:04;4.50;;;2.50;;